createdAt,value
2016-05-27T00:00:01.496Z,78.3
2016-05-27T00:00:11.481Z,78
2016-05-27T00:00:21.325Z,78.3
2016-05-27T00:00:31.450Z,78
2016-05-27T00:00:41.450Z,77.9
2016-05-27T00:00:51.434Z,77.7
2016-05-27T00:01:01.420Z,78
2016-05-27T00:01:11.420Z,78
2016-05-27T00:01:21.405Z,78
2016-05-27T00:01:31.389Z,78
2016-05-27T00:01:41.389Z,78
2016-05-27T00:01:51.373Z,78.2
2016-05-27T00:02:01.205Z,78.8
2016-05-27T00:02:11.189Z,78.2
2016-05-27T00:02:21.205Z,78.4
2016-05-27T00:02:31.330Z,78.3
2016-05-27T00:02:41.314Z,78.3
2016-05-27T00:02:51.298Z,78.2
2016-05-27T00:03:01.145Z,78.6
2016-05-27T00:03:11.286Z,78.5
2016-05-27T00:03:21.254Z,78.5
2016-05-27T00:03:31.723Z,78.5
2016-05-27T00:03:41.317Z,78.6
2016-05-27T00:03:51.442Z,78.5
2016-05-27T00:04:01.367Z,78.5
2016-05-27T00:04:11.539Z,78.4
2016-05-27T00:04:21.632Z,78.5
2016-05-27T00:04:31.648Z,78.5
2016-05-27T00:04:41.179Z,78.6
2016-05-27T00:04:51.023Z,78.7
2016-05-27T00:05:01.166Z,78.6
2016-05-27T00:05:10.994Z,78.4
2016-05-27T00:05:21.150Z,78.4
2016-05-27T00:05:31.134Z,78.6
2016-05-27T00:05:41.119Z,78.6
2016-05-27T00:05:51.103Z,78.4
2016-05-27T00:06:01.106Z,78.4
2016-05-27T00:06:11.091Z,78.6
2016-05-27T00:06:21.075Z,78.5
2016-05-27T00:06:31.075Z,78.4
2016-05-27T00:06:40.903Z,78.6
2016-05-27T00:06:51.044Z,78.6
2016-05-27T00:07:01.031Z,78.6
2016-05-27T00:07:11.047Z,78.7
2016-05-27T00:07:20.859Z,78.5
2016-05-27T00:07:31.015Z,78.6
2016-05-27T00:07:40.844Z,78.6
2016-05-27T00:07:50.969Z,78.7
2016-05-27T00:08:00.814Z,78.6
2016-05-27T00:08:10.955Z,78.6
2016-05-27T00:08:20.955Z,78.6
2016-05-27T00:08:30.939Z,78.7
2016-05-27T00:08:40.924Z,78.5
2016-05-27T00:08:50.908Z,78.9
2016-05-27T00:09:00.911Z,79.1
2016-05-27T00:09:10.895Z,79
2016-05-27T00:09:20.880Z,78.9
2016-05-27T00:09:30.708Z,79.1
2016-05-27T00:09:40.864Z,78.6
2016-05-27T00:09:50.536Z,78.8
2016-05-27T00:10:00.680Z,78.9
2016-05-27T00:10:10.836Z,78.8
2016-05-27T00:10:20.820Z,78.8
2016-05-27T00:10:30.805Z,79.1
2016-05-27T00:10:40.805Z,78.8
2016-05-27T00:10:50.789Z,78.9
2016-05-27T00:11:00.775Z,78.9
2016-05-27T00:11:10.604Z,78.9
2016-05-27T00:11:20.760Z,79
2016-05-27T00:11:30.744Z,79.2
2016-05-27T00:11:40.729Z,78.9
2016-05-27T00:11:50.713Z,78.8
2016-05-27T00:12:00.716Z,78.8
2016-05-27T00:12:10.700Z,78.9
2016-05-27T00:12:20.685Z,79.3
2016-05-27T00:12:30.669Z,78.7
2016-05-27T00:12:40.669Z,78.7
2016-05-27T00:12:50.653Z,78.5
2016-05-27T00:13:00.640Z,78.7
2016-05-27T00:13:10.640Z,78.6
2016-05-27T00:13:20.484Z,78.8
2016-05-27T00:13:30.609Z,79
2016-05-27T00:13:40.609Z,79.4
2016-05-27T00:13:50.593Z,79.2
2016-05-27T00:14:00.300Z,79.1
2016-05-27T00:14:10.425Z,79.2
2016-05-27T00:14:20.566Z,79
2016-05-27T00:14:30.550Z,79.3
2016-05-27T00:14:40.394Z,79
2016-05-27T00:14:50.378Z,79.2
2016-05-27T00:15:00.208Z,79
2016-05-27T00:15:10.505Z,78.9
2016-05-27T00:15:20.505Z,79
2016-05-27T00:15:30.474Z,78.8
2016-05-27T00:15:40.474Z,78.8
2016-05-27T00:15:50.458Z,78.8
2016-05-27T00:16:00.460Z,78.8
2016-05-27T00:16:10.445Z,79.1
2016-05-27T00:16:20.429Z,78.9
2016-05-27T00:16:30.429Z,79.4
2016-05-27T00:16:40.398Z,79
2016-05-27T00:16:50.398Z,79
2016-05-27T00:17:00.385Z,78.6
2016-05-27T00:17:10.370Z,79.2
2016-05-27T00:17:20.213Z,79.4
2016-05-27T00:17:30.354Z,79.4
2016-05-27T00:17:40.354Z,79.2
2016-05-27T00:17:50.323Z,79.2
2016-05-27T00:18:00.169Z,79
2016-05-27T00:18:10.310Z,79.1
2016-05-27T00:18:20.154Z,79.1
2016-05-27T00:18:30.154Z,79.2
2016-05-27T00:18:40.123Z,79.2
2016-05-27T00:18:50.779Z,79.4
2016-05-27T00:19:00.469Z,79.2
2016-05-27T00:19:10.251Z,79.4
2016-05-27T00:19:20.235Z,79.4
2016-05-27T00:19:30.079Z,79.4
2016-05-27T00:19:40.204Z,79.2
2016-05-27T00:19:50.047Z,78.6
2016-05-27T00:20:00.035Z,79.4
2016-05-27T00:20:10.175Z,78.5
2016-05-27T00:20:20.175Z,79.2
2016-05-27T00:20:29.847Z,79
2016-05-27T00:20:40.144Z,79.4
2016-05-27T00:20:50.129Z,79.2
2016-05-27T00:21:00.131Z,79.1
2016-05-27T00:21:09.818Z,79.7
2016-05-27T00:21:20.099Z,79.4
2016-05-27T00:21:30.099Z,79.5
2016-05-27T00:21:40.084Z,79.4
2016-05-27T00:21:50.068Z,79.1
2016-05-27T00:22:00.070Z,79.3
2016-05-27T00:22:10.054Z,79.8
2016-05-27T00:22:20.039Z,79.1
2016-05-27T00:22:30.039Z,79.1
2016-05-27T00:22:40.023Z,79
2016-05-27T00:22:50.008Z,79
2016-05-27T00:22:59.995Z,79.2
2016-05-27T00:23:09.979Z,79.4
2016-05-27T00:23:19.964Z,79.8
2016-05-27T00:23:29.823Z,79.1
2016-05-27T00:23:39.979Z,79.5
2016-05-27T00:23:49.932Z,79.6
2016-05-27T00:23:59.936Z,79.5
2016-05-27T00:24:09.765Z,79.6
2016-05-27T00:24:19.921Z,79.4
2016-05-27T00:24:29.921Z,79.8
2016-05-27T00:24:39.733Z,79.5
2016-05-27T00:24:50.046Z,79.4
2016-05-27T00:25:00.048Z,79.7
2016-05-27T00:25:09.860Z,79.6
2016-05-27T00:25:19.845Z,79.4
2016-05-27T00:25:29.673Z,79.6
2016-05-27T00:25:39.829Z,79.8
2016-05-27T00:25:49.532Z,79.8
2016-05-27T00:25:59.816Z,79.6
2016-05-27T00:26:09.801Z,79.6
2016-05-27T00:26:19.785Z,79.7
2016-05-27T00:26:29.613Z,79.7
2016-05-27T00:26:39.754Z,79.7
2016-05-27T00:26:49.598Z,79.8
2016-05-27T00:26:59.740Z,79.8
2016-05-27T00:27:09.568Z,79.9
2016-05-27T00:27:19.725Z,79.8
2016-05-27T00:27:29.693Z,79.3
2016-05-27T00:27:39.693Z,79.5
2016-05-27T00:27:49.678Z,79.3
2016-05-27T00:27:59.665Z,79.8
2016-05-27T00:28:09.665Z,79.6
2016-05-27T00:28:19.650Z,79.5
2016-05-27T00:28:29.634Z,79.5
2016-05-27T00:28:39.478Z,79.7
2016-05-27T00:28:49.603Z,79.8
2016-05-27T00:28:59.448Z,79.8
2016-05-27T00:29:09.589Z,79.9
2016-05-27T00:29:19.573Z,79.7
2016-05-27T00:29:29.417Z,79.5
2016-05-27T00:29:39.558Z,79.5
2016-05-27T00:29:49.542Z,79.8
2016-05-27T00:29:59.530Z,79.7
2016-05-27T00:30:09.514Z,80
2016-05-27T00:30:19.373Z,79.5
2016-05-27T00:30:29.342Z,79.7
2016-05-27T00:30:39.498Z,79.7
2016-05-27T00:30:49.483Z,79.5
2016-05-27T00:30:59.314Z,79.4
2016-05-27T00:31:09.470Z,79.6
2016-05-27T00:31:19.454Z,79.4
2016-05-27T00:31:29.439Z,79.4
2016-05-27T00:31:39.423Z,79.4
2016-05-27T00:31:49.423Z,79.3
2016-05-27T00:31:59.270Z,79.3
2016-05-27T00:32:09.239Z,79.4
2016-05-27T00:32:19.411Z,79.4
2016-05-27T00:32:29.379Z,80
2016-05-27T00:32:39.364Z,79.8
2016-05-27T00:32:49.364Z,79.7
2016-05-27T00:32:59.178Z,79.9
2016-05-27T00:33:09.334Z,79.9
2016-05-27T00:33:19.428Z,80.2
2016-05-27T00:33:29.163Z,80.1
2016-05-27T00:33:39.413Z,79.6
2016-05-27T00:33:48.975Z,80.3
2016-05-27T00:33:59.744Z,79.7
2016-05-27T00:34:09.353Z,80.3
2016-05-27T00:34:18.947Z,79.6
2016-05-27T00:34:29.603Z,80
2016-05-27T00:34:39.228Z,80
2016-05-27T00:34:49.072Z,80.2
2016-05-27T00:34:59.199Z,80.3
2016-05-27T00:35:09.199Z,80.2
2016-05-27T00:35:19.199Z,80.4
2016-05-27T00:35:29.027Z,80.2
2016-05-27T00:35:39.011Z,80.7
2016-05-27T00:35:49.152Z,80.4
2016-05-27T00:35:59.155Z,80.4
2016-05-27T00:36:09.124Z,80.5
2016-05-27T00:36:19.124Z,80.4
2016-05-27T00:36:29.108Z,80.2
2016-05-27T00:36:38.952Z,80
2016-05-27T00:36:49.092Z,80.1
2016-05-27T00:36:59.095Z,79.7
2016-05-27T00:37:09.049Z,80
2016-05-27T00:37:18.908Z,79.7
2016-05-27T00:37:29.049Z,79.9
2016-05-27T00:37:39.033Z,80.1
2016-05-27T00:37:48.892Z,79.8
2016-05-27T00:37:59.005Z,80.1
2016-05-27T00:38:08.848Z,80.5
2016-05-27T00:38:18.989Z,80.1
2016-05-27T00:38:28.817Z,80.2
2016-05-27T00:38:38.973Z,80.1
2016-05-27T00:38:48.958Z,80.3
2016-05-27T00:38:58.960Z,80.3
2016-05-27T00:39:08.960Z,80.1
2016-05-27T00:39:18.772Z,80.4
2016-05-27T00:39:28.929Z,80.4
2016-05-27T00:39:38.741Z,80.3
2016-05-27T00:39:48.897Z,80.4
2016-05-27T00:39:58.728Z,80.1
2016-05-27T00:40:08.728Z,80.1
2016-05-27T00:40:18.557Z,80.1
2016-05-27T00:40:28.838Z,79.9
2016-05-27T00:40:38.838Z,79.8
2016-05-27T00:40:48.822Z,79.9
2016-05-27T00:40:58.825Z,80
2016-05-27T00:41:08.810Z,79.5
2016-05-27T00:41:18.638Z,79.8
2016-05-27T00:41:28.778Z,80.7
2016-05-27T00:41:38.763Z,79.9
2016-05-27T00:41:48.763Z,80.2
2016-05-27T00:41:58.593Z,80.2
2016-05-27T00:42:08.765Z,80.2
2016-05-27T00:42:18.718Z,80.3
2016-05-27T00:42:28.718Z,80.1
2016-05-27T00:42:38.702Z,80
2016-05-27T00:42:48.546Z,79.8
2016-05-27T00:42:58.690Z,79.7
2016-05-27T00:43:08.674Z,79.7
2016-05-27T00:43:18.502Z,79.8
2016-05-27T00:43:28.674Z,79.6
2016-05-27T00:43:38.643Z,79.6
2016-05-27T00:43:48.627Z,79.8
2016-05-27T00:43:58.614Z,79.8
2016-05-27T00:44:08.614Z,79.9
2016-05-27T00:44:18.599Z,80
2016-05-27T00:44:28.583Z,79.8
2016-05-27T00:44:38.427Z,79.8
2016-05-27T00:44:48.568Z,79.8
2016-05-27T00:44:58.555Z,79.8
2016-05-27T00:45:08.555Z,80
2016-05-27T00:45:18.539Z,79.9
2016-05-27T00:45:28.524Z,80
2016-05-27T00:45:38.508Z,79.5
2016-05-27T00:45:48.352Z,79.4
2016-05-27T00:45:58.354Z,79.6
2016-05-27T00:46:08.323Z,79.7
2016-05-27T00:46:18.479Z,79.7
2016-05-27T00:46:28.463Z,79.5
2016-05-27T00:46:38.291Z,80
2016-05-27T00:46:48.432Z,79.7
2016-05-27T00:46:58.435Z,79.8
2016-05-27T00:47:08.419Z,79.9
2016-05-27T00:47:18.388Z,80.2
2016-05-27T00:47:28.247Z,79.7
2016-05-27T00:47:38.372Z,79.8
2016-05-27T00:47:48.372Z,80.4
2016-05-27T00:47:58.359Z,79.9
2016-05-27T00:48:08.343Z,80.4
2016-05-27T00:48:18.343Z,80.1
2016-05-27T00:48:28.187Z,80.3
2016-05-27T00:48:38.734Z,80.1
2016-05-27T00:48:48.312Z,80.3
2016-05-27T00:48:58.144Z,80.3
2016-05-27T00:49:08.441Z,80.3
2016-05-27T00:49:18.535Z,80.3
2016-05-27T00:49:28.628Z,79.6
2016-05-27T00:49:38.253Z,80.4
2016-05-27T00:49:48.238Z,80.2
2016-05-27T00:49:58.084Z,80.4
2016-05-27T00:50:08.224Z,80
2016-05-27T00:50:18.052Z,80.4
2016-05-27T00:50:28.193Z,80.1
2016-05-27T00:50:38.177Z,80.4
2016-05-27T00:50:48.177Z,80.2
2016-05-27T00:50:58.165Z,80.6
2016-05-27T00:51:08.008Z,80.2
2016-05-27T00:51:17.993Z,80.5
2016-05-27T00:51:28.133Z,80
2016-05-27T00:51:38.118Z,80.3
2016-05-27T00:51:48.118Z,80.3
2016-05-27T00:51:58.104Z,80.3
2016-05-27T00:52:08.089Z,80.5
2016-05-27T00:52:18.089Z,80.3
2016-05-27T00:52:28.073Z,80.3
2016-05-27T00:52:38.057Z,80.1
2016-05-27T00:52:48.042Z,80.1
2016-05-27T00:52:58.026Z,80.2
2016-05-27T00:53:08.013Z,80.4
2016-05-27T00:53:18.013Z,80.7
2016-05-27T00:53:27.998Z,80.5
2016-05-27T00:53:37.998Z,80.2
2016-05-27T00:53:47.967Z,80.3
2016-05-27T00:53:57.967Z,80.1
2016-05-27T00:54:07.954Z,80.2
2016-05-27T00:54:17.938Z,80.4
2016-05-27T00:54:27.938Z,80.5
2016-05-27T00:54:37.766Z,80.7
2016-05-27T00:54:47.766Z,80.8
2016-05-27T00:54:57.751Z,80.9
2016-05-27T00:55:07.737Z,80.8
2016-05-27T00:55:17.878Z,80.5
2016-05-27T00:55:27.878Z,80.6
2016-05-27T00:55:37.706Z,80.4
2016-05-27T00:55:47.847Z,80.7
2016-05-27T00:55:57.706Z,80.8
2016-05-27T00:56:07.818Z,81
2016-05-27T00:56:17.818Z,80.9
2016-05-27T00:56:27.646Z,80.3
2016-05-27T00:56:37.803Z,80.5
2016-05-27T00:56:47.787Z,80.5
2016-05-27T00:56:57.615Z,80.6
2016-05-27T00:57:07.774Z,80.4
2016-05-27T00:57:17.603Z,80.7
2016-05-27T00:57:27.618Z,80.4
2016-05-27T00:57:37.728Z,80.5
2016-05-27T00:57:47.712Z,80.6
2016-05-27T00:57:57.696Z,80.6
2016-05-27T00:58:07.386Z,80.7
2016-05-27T00:58:17.698Z,80.5
2016-05-27T00:58:27.526Z,80.9
2016-05-27T00:58:37.667Z,80.8
2016-05-27T00:58:47.511Z,80.8
2016-05-27T00:58:57.651Z,80.8
2016-05-27T00:59:07.624Z,80.9
2016-05-27T00:59:17.624Z,80.8
2016-05-27T00:59:27.452Z,80.8
2016-05-27T00:59:37.452Z,80.6
2016-05-27T00:59:47.593Z,80.7
2016-05-27T00:59:57.577Z,80.5
2016-05-27T01:00:07.564Z,80.6
2016-05-27T01:00:17.407Z,80.9
2016-05-27T01:00:27.548Z,80.7
2016-05-27T01:00:37.532Z,80.7
2016-05-27T01:00:47.517Z,80.6
2016-05-27T01:00:57.361Z,80.9
2016-05-27T01:01:07.503Z,80.8
2016-05-27T01:01:17.488Z,80.9
2016-05-27T01:01:27.488Z,80.7
2016-05-27T01:01:37.472Z,80.3
2016-05-27T01:01:47.456Z,80.8
2016-05-27T01:01:57.441Z,80.8
2016-05-27T01:02:07.445Z,80.6
2016-05-27T01:02:17.413Z,81.1
2016-05-27T01:02:27.413Z,80.7
2016-05-27T01:02:37.398Z,80.7
2016-05-27T01:02:47.398Z,80.7
2016-05-27T01:02:57.070Z,80.7
2016-05-27T01:03:07.369Z,80.8
2016-05-27T01:03:17.353Z,80.7
2016-05-27T01:03:27.212Z,81.1
2016-05-27T01:03:37.181Z,80.5
2016-05-27T01:03:47.587Z,80.7
2016-05-27T01:03:58.165Z,81.1
2016-05-27T01:04:07.700Z,81
2016-05-27T01:04:17.575Z,81
2016-05-27T01:04:27.387Z,80.9
2016-05-27T01:04:37.278Z,80.9
2016-05-27T01:04:47.262Z,80.8
2016-05-27T01:04:57.247Z,80.9
2016-05-27T01:05:07.077Z,80.8
2016-05-27T01:05:17.233Z,80.9
2016-05-27T01:05:27.217Z,81.1
2016-05-27T01:05:37.045Z,81.3
2016-05-27T01:05:47.202Z,80.8
2016-05-27T01:05:57.186Z,80.8
2016-05-27T01:06:07.017Z,81.2
2016-05-27T01:06:17.158Z,81.4
2016-05-27T01:06:27.158Z,81
2016-05-27T01:06:37.142Z,81.4
2016-05-27T01:06:47.142Z,81.3
2016-05-27T01:06:57.111Z,81.2
2016-05-27T01:07:07.114Z,81
2016-05-27T01:07:17.098Z,81.4
2016-05-27T01:07:26.942Z,81.1
2016-05-27T01:07:36.911Z,81.2
2016-05-27T01:07:47.067Z,81
2016-05-27T01:07:56.895Z,81.2
2016-05-27T01:08:06.897Z,81.3
2016-05-27T01:08:17.022Z,81.4
2016-05-27T01:08:27.022Z,81.4
2016-05-27T01:08:37.007Z,81.2
2016-05-27T01:08:46.991Z,81.2
2016-05-27T01:08:56.991Z,81.3
2016-05-27T01:09:06.822Z,80.9
2016-05-27T01:09:16.963Z,81.4
2016-05-27T01:09:26.947Z,81.2
2016-05-27T01:09:36.791Z,80.8
2016-05-27T01:09:46.931Z,81.4
2016-05-27T01:09:56.916Z,80.9
2016-05-27T01:10:06.918Z,81.3
2016-05-27T01:10:16.590Z,81.4
2016-05-27T01:10:26.887Z,81.4
2016-05-27T01:10:36.871Z,81.3
2016-05-27T01:10:46.871Z,81.3
2016-05-27T01:10:56.855Z,81.2
2016-05-27T01:11:06.858Z,81.2
2016-05-27T01:11:16.843Z,81.2
2016-05-27T01:11:26.811Z,80.8
2016-05-27T01:11:36.811Z,81.2
2016-05-27T01:11:46.796Z,81.2
2016-05-27T01:11:56.796Z,81.2
2016-05-27T01:12:06.783Z,81.2
2016-05-27T01:12:16.768Z,81.3
2016-05-27T01:12:26.596Z,81.2
2016-05-27T01:12:36.736Z,81.3
2016-05-27T01:12:46.736Z,81.3
2016-05-27T01:12:56.721Z,81
2016-05-27T01:13:06.724Z,81.3
2016-05-27T01:13:16.708Z,81
2016-05-27T01:13:26.724Z,81.1
2016-05-27T01:13:36.677Z,81.4
2016-05-27T01:13:46.505Z,81
2016-05-27T01:13:56.646Z,81.1
2016-05-27T01:14:06.492Z,81.3
2016-05-27T01:14:16.633Z,81.3
2016-05-27T01:14:26.617Z,81.3
2016-05-27T01:14:36.617Z,80.6
2016-05-27T01:14:46.602Z,81.3
2016-05-27T01:14:56.445Z,81.1
2016-05-27T01:15:06.588Z,81.4
2016-05-27T01:15:16.572Z,80.8
2016-05-27T01:15:26.557Z,80.9
2016-05-27T01:15:36.385Z,81.2
2016-05-27T01:15:46.401Z,80.7
2016-05-27T01:15:56.526Z,81.3
2016-05-27T01:16:06.372Z,81
2016-05-27T01:16:16.497Z,80.5
2016-05-27T01:16:26.341Z,80.7
2016-05-27T01:16:36.497Z,80.7
2016-05-27T01:16:46.466Z,81.4
2016-05-27T01:16:56.466Z,81.5
2016-05-27T01:17:06.297Z,81.5
2016-05-27T01:17:16.282Z,81.2
2016-05-27T01:17:26.422Z,80.9
2016-05-27T01:17:36.422Z,81.4
2016-05-27T01:17:46.250Z,81.5
2016-05-27T01:17:56.407Z,81.3
2016-05-27T01:18:06.394Z,81.3
2016-05-27T01:18:16.378Z,81.1
2016-05-27T01:18:26.269Z,80.7
2016-05-27T01:18:36.363Z,81.4
2016-05-27T01:18:46.285Z,80.9
2016-05-27T01:18:57.316Z,81.1
2016-05-27T01:19:06.568Z,80.7
2016-05-27T01:19:16.333Z,81.2
2016-05-27T01:19:26.318Z,80.9
2016-05-27T01:19:36.130Z,81.1
2016-05-27T01:19:46.115Z,81
2016-05-27T01:19:56.255Z,81
2016-05-27T01:20:06.243Z,80.7
2016-05-27T01:20:16.243Z,80.6
2016-05-27T01:20:26.227Z,81.1
2016-05-27T01:20:36.211Z,81.1
2016-05-27T01:20:46.227Z,81.1
2016-05-27T01:20:56.196Z,81.1
2016-05-27T01:21:06.198Z,81
2016-05-27T01:21:16.182Z,81
2016-05-27T01:21:26.167Z,80.7
2016-05-27T01:21:36.151Z,80.9
2016-05-27T01:21:45.979Z,81
2016-05-27T01:21:56.135Z,80.7
2016-05-27T01:22:06.124Z,81.3
2016-05-27T01:22:16.124Z,80.6
2016-05-27T01:22:26.108Z,80.6
2016-05-27T01:22:36.092Z,81
2016-05-27T01:22:46.077Z,81.2
2016-05-27T01:22:56.061Z,81.2
2016-05-27T01:23:06.062Z,80.8
2016-05-27T01:23:15.890Z,80.8
2016-05-27T01:23:26.031Z,80.6
2016-05-27T01:23:35.875Z,80.9
2016-05-27T01:23:46.015Z,80.6
2016-05-27T01:23:56.015Z,81
2016-05-27T01:24:05.987Z,81
2016-05-27T01:24:15.971Z,80.8
2016-05-27T01:24:25.971Z,81
2016-05-27T01:24:35.800Z,81.1
2016-05-27T01:24:45.940Z,80.7
2016-05-27T01:24:55.940Z,80.7
2016-05-27T01:25:05.771Z,80.8
2016-05-27T01:25:15.912Z,80.8
2016-05-27T01:25:25.896Z,80.6
2016-05-27T01:25:35.896Z,80.5
2016-05-27T01:25:45.896Z,80.5
2016-05-27T01:25:55.865Z,80.8
2016-05-27T01:26:05.712Z,80.4
2016-05-27T01:26:15.696Z,80.3
2016-05-27T01:26:25.852Z,80.8
2016-05-27T01:26:35.837Z,81
2016-05-27T01:26:45.665Z,80.8
2016-05-27T01:26:55.821Z,80.9
2016-05-27T01:27:05.793Z,80.8
2016-05-27T01:27:15.793Z,80.9
2016-05-27T01:27:25.621Z,81
2016-05-27T01:27:35.762Z,81.1
2016-05-27T01:27:45.746Z,80.7
2016-05-27T01:27:55.434Z,80.6
2016-05-27T01:28:05.733Z,80.6
2016-05-27T01:28:15.562Z,80.7
2016-05-27T01:28:25.702Z,80.7
2016-05-27T01:28:35.546Z,80.5
2016-05-27T01:28:45.530Z,80.4
2016-05-27T01:28:55.671Z,80.6
2016-05-27T01:29:05.673Z,80.6
2016-05-27T01:29:15.657Z,80.7
2016-05-27T01:29:25.657Z,81.1
2016-05-27T01:29:35.626Z,80.5
2016-05-27T01:29:45.610Z,80.5
2016-05-27T01:29:55.610Z,80.7
2016-05-27T01:30:05.598Z,80.8
2016-05-27T01:30:15.582Z,80.7
2016-05-27T01:30:25.567Z,80.7
2016-05-27T01:30:35.410Z,80.7
2016-05-27T01:30:45.567Z,80.5
2016-05-27T01:30:55.535Z,80.7
2016-05-27T01:31:05.537Z,80.5
2016-05-27T01:31:15.522Z,81
2016-05-27T01:31:25.506Z,80.6
2016-05-27T01:31:35.490Z,80.7
2016-05-27T01:31:45.490Z,80.6
2016-05-27T01:31:55.475Z,81
2016-05-27T01:32:05.306Z,80.7
2016-05-27T01:32:15.462Z,80.5
2016-05-27T01:32:25.447Z,80.7
2016-05-27T01:32:35.447Z,80.5
2016-05-27T01:32:45.275Z,80.7
2016-05-27T01:32:55.415Z,80.5
2016-05-27T01:33:05.418Z,80.5
2016-05-27T01:33:15.403Z,81
2016-05-27T01:33:25.590Z,80.7
2016-05-27T01:33:35.778Z,80.6
2016-05-27T01:33:45.543Z,80.8
2016-05-27T01:33:55.637Z,80.7
2016-05-27T01:34:05.187Z,80.9
2016-05-27T01:34:15.812Z,80.5
2016-05-27T01:34:25.890Z,80.3
2016-05-27T01:34:35.156Z,80.3
2016-05-27T01:34:45.296Z,80.4
2016-05-27T01:34:55.281Z,80.5
2016-05-27T01:35:05.267Z,80.2
2016-05-27T01:35:15.267Z,80.2
2016-05-27T01:35:25.267Z,80.3
2016-05-27T01:35:35.080Z,80.2
2016-05-27T01:35:45.220Z,80.2
2016-05-27T01:35:55.220Z,80.2
2016-05-27T01:36:05.050Z,80.3
2016-05-27T01:36:15.191Z,80.3
2016-05-27T01:36:25.035Z,80.5
2016-05-27T01:36:35.175Z,80.5
2016-05-27T01:36:45.160Z,80.4
2016-05-27T01:36:55.144Z,80.7
2016-05-27T01:37:05.164Z,80.5
2016-05-27T01:37:15.132Z,80.5
2016-05-27T01:37:25.117Z,80.6
2016-05-27T01:37:35.117Z,80.5
2016-05-27T01:37:44.945Z,80.3
2016-05-27T01:37:55.101Z,80.5
2016-05-27T01:38:04.916Z,80.7
2016-05-27T01:38:15.056Z,80.8
2016-05-27T01:38:25.056Z,80.4
2016-05-27T01:38:34.884Z,80.6
2016-05-27T01:38:45.025Z,80.8
2016-05-27T01:38:55.025Z,80.8
2016-05-27T01:39:04.700Z,80.7
2016-05-27T01:39:14.856Z,80.7
2016-05-27T01:39:24.825Z,80.5
2016-05-27T01:39:34.981Z,80.8
2016-05-27T01:39:44.809Z,80.7
2016-05-27T01:39:54.950Z,80.6
2016-05-27T01:40:04.796Z,80.8
2016-05-27T01:40:14.796Z,81.1
2016-05-27T01:40:24.921Z,81
2016-05-27T01:40:34.905Z,81
2016-05-27T01:40:44.889Z,80.9
2016-05-27T01:40:54.889Z,80.8
2016-05-27T01:41:04.892Z,80.9
2016-05-27T01:41:14.861Z,80.9
2016-05-27T01:41:24.861Z,80.6
2016-05-27T01:41:34.861Z,81.1
2016-05-27T01:41:44.674Z,80.7
2016-05-27T01:41:54.814Z,80.8
2016-05-27T01:42:04.817Z,80.9
2016-05-27T01:42:14.802Z,80.6
2016-05-27T01:42:24.786Z,80.7
2016-05-27T01:42:34.786Z,80.6
2016-05-27T01:42:44.614Z,81.1
2016-05-27T01:42:54.755Z,80.6
2016-05-27T01:43:04.758Z,80.9
2016-05-27T01:43:14.727Z,80.7
2016-05-27T01:43:24.727Z,80.8
2016-05-27T01:43:34.711Z,80.9
2016-05-27T01:43:44.711Z,81
2016-05-27T01:43:54.695Z,81.1
2016-05-27T01:44:04.682Z,80.8
2016-05-27T01:44:14.666Z,80.6
2016-05-27T01:44:24.510Z,81.1
2016-05-27T01:44:34.494Z,81.3
2016-05-27T01:44:44.619Z,81.2
2016-05-27T01:44:54.650Z,81
2016-05-27T01:45:04.622Z,80.9
2016-05-27T01:45:14.607Z,81.1
2016-05-27T01:45:24.591Z,81
2016-05-27T01:45:34.575Z,81.2
2016-05-27T01:45:44.560Z,80.9
2016-05-27T01:45:54.560Z,81
2016-05-27T01:46:04.547Z,81
2016-05-27T01:46:14.531Z,81.2
2016-05-27T01:46:24.531Z,81.2
2016-05-27T01:46:34.516Z,81
2016-05-27T01:46:44.500Z,80.8
2016-05-27T01:46:54.344Z,81.1
2016-05-27T01:47:04.487Z,81
2016-05-27T01:47:14.471Z,81
2016-05-27T01:47:24.299Z,80.8
2016-05-27T01:47:34.455Z,80.9
2016-05-27T01:47:44.440Z,80.9
2016-05-27T01:47:54.268Z,80.9
2016-05-27T01:48:04.411Z,81
2016-05-27T01:48:14.411Z,81.2
2016-05-27T01:48:24.740Z,80.9
2016-05-27T01:48:34.411Z,80.7
2016-05-27T01:48:44.411Z,80.7
2016-05-27T01:48:54.208Z,80.3
2016-05-27T01:49:05.291Z,80.6
2016-05-27T01:49:15.166Z,80.4
2016-05-27T01:49:24.838Z,80.4
2016-05-27T01:49:34.323Z,80.5
2016-05-27T01:49:44.307Z,80.7
2016-05-27T01:49:54.151Z,80.5
2016-05-27T01:50:04.298Z,80.9
2016-05-27T01:50:14.298Z,80.5
2016-05-27T01:50:24.282Z,80.6
2016-05-27T01:50:34.282Z,81
2016-05-27T01:50:44.110Z,81
2016-05-27T01:50:54.251Z,80.8
2016-05-27T01:51:04.257Z,81.3
2016-05-27T01:51:14.257Z,81
2016-05-27T01:51:24.242Z,80.8
2016-05-27T01:51:34.226Z,81.1
2016-05-27T01:51:44.210Z,80.8
2016-05-27T01:51:54.054Z,80.7
2016-05-27T01:52:04.217Z,80.9
2016-05-27T01:52:14.201Z,80.9
2016-05-27T01:52:24.201Z,81
2016-05-27T01:52:34.186Z,81
2016-05-27T01:52:44.014Z,80.7
2016-05-27T01:52:54.154Z,81.1
2016-05-27T01:53:04.161Z,80.5
2016-05-27T01:53:14.161Z,81
2016-05-27T01:53:24.145Z,81
2016-05-27T01:53:34.129Z,81.4
2016-05-27T01:53:44.129Z,81.4
2016-05-27T01:53:54.114Z,81.3
2016-05-27T01:54:04.134Z,81.3
2016-05-27T01:54:14.103Z,81.1
2016-05-27T01:54:24.103Z,81.1
2016-05-27T01:54:34.103Z,80.8
2016-05-27T01:54:44.087Z,80.7
2016-05-27T01:54:54.056Z,80.6
2016-05-27T01:55:03.909Z,80.7
2016-05-27T01:55:14.066Z,81.2
2016-05-27T01:55:23.894Z,81.1
2016-05-27T01:55:34.034Z,81.2
2016-05-27T01:55:44.034Z,81.2
2016-05-27T01:55:53.847Z,81
2016-05-27T01:56:03.856Z,80.9
2016-05-27T01:56:13.825Z,81
2016-05-27T01:56:23.981Z,81.1
2016-05-27T01:56:33.981Z,81.2
2016-05-27T01:56:43.965Z,81.2
2016-05-27T01:56:53.950Z,81
2016-05-27T01:57:03.944Z,81.1
2016-05-27T01:57:13.928Z,81.2
2016-05-27T01:57:23.928Z,81.1
2016-05-27T01:57:33.928Z,81.2
2016-05-27T01:57:43.897Z,81.2
2016-05-27T01:57:53.913Z,81.4
2016-05-27T01:58:03.892Z,81.4
2016-05-27T01:58:13.876Z,81.3
2016-05-27T01:58:23.860Z,81.5
2016-05-27T01:58:33.860Z,81.6
2016-05-27T01:58:43.860Z,81.6
2016-05-27T01:58:53.829Z,81
2016-05-27T01:59:03.821Z,81.5
2016-05-27T01:59:13.806Z,81.1
2016-05-27T01:59:23.650Z,81.7
2016-05-27T01:59:33.806Z,81.1
2016-05-27T01:59:43.775Z,81.3
2016-05-27T01:59:53.775Z,81.6
2016-05-27T02:00:03.765Z,81.2
2016-05-27T02:00:13.749Z,81.2
2016-05-27T02:00:23.734Z,81.4
2016-05-27T02:00:33.718Z,81.1
2016-05-27T02:00:43.718Z,81.3
2016-05-27T02:00:53.718Z,81.1
2016-05-27T02:01:03.708Z,81.3
2016-05-27T02:01:13.693Z,81.6
2016-05-27T02:01:23.693Z,81.1
2016-05-27T02:01:33.662Z,81.1
2016-05-27T02:01:43.505Z,81.4
2016-05-27T02:01:53.490Z,81.4
2016-05-27T02:02:03.634Z,81.2
2016-05-27T02:02:13.619Z,81.5
2016-05-27T02:02:23.619Z,81.4
2016-05-27T02:02:33.619Z,81.2
2016-05-27T02:02:43.431Z,81.4
2016-05-27T02:02:53.587Z,81.1
2016-05-27T02:03:03.578Z,81.3
2016-05-27T02:03:13.562Z,81.3
2016-05-27T02:03:23.953Z,81.2
2016-05-27T02:03:34.000Z,81.6
2016-05-27T02:03:44.062Z,81.9
2016-05-27T02:03:53.937Z,82
2016-05-27T02:04:03.380Z,81.5
2016-05-27T02:04:13.911Z,81.3
2016-05-27T02:04:23.786Z,82
2016-05-27T02:04:33.473Z,81.7
2016-05-27T02:04:43.458Z,81.5
2016-05-27T02:04:53.302Z,81.7
2016-05-27T02:05:03.445Z,81.5
2016-05-27T02:05:13.430Z,81.6
2016-05-27T02:05:23.430Z,81.6
2016-05-27T02:05:33.414Z,82.1
2016-05-27T02:05:43.086Z,81.4
2016-05-27T02:05:53.226Z,81.9
2016-05-27T02:06:03.387Z,81.9
2016-05-27T02:06:13.387Z,81.7
2016-05-27T02:06:23.199Z,81.6
2016-05-27T02:06:33.340Z,82.1
2016-05-27T02:06:43.340Z,81.7
2016-05-27T02:06:53.324Z,81.9
2016-05-27T02:07:03.328Z,82.1
2016-05-27T02:07:13.297Z,81.8
2016-05-27T02:07:23.297Z,81.8
2016-05-27T02:07:33.281Z,81.8
2016-05-27T02:07:43.109Z,82.1
2016-05-27T02:07:53.266Z,81.7
2016-05-27T02:08:03.254Z,82
2016-05-27T02:08:13.238Z,81.6
2016-05-27T02:08:23.067Z,81.8
2016-05-27T02:08:33.067Z,81.8
2016-05-27T02:08:43.207Z,81.8
2016-05-27T02:08:53.192Z,81.9
2016-05-27T02:09:03.037Z,81.8
2016-05-27T02:09:13.037Z,81.7
2016-05-27T02:09:23.162Z,82
2016-05-27T02:09:33.162Z,82.1
2016-05-27T02:09:43.147Z,81.9
2016-05-27T02:09:53.131Z,82
2016-05-27T02:10:03.135Z,82.1
2016-05-27T02:10:13.104Z,82.1
2016-05-27T02:10:23.088Z,81.8
2016-05-27T02:10:33.088Z,81.8
2016-05-27T02:10:43.073Z,81.9
2016-05-27T02:10:52.916Z,82.1
2016-05-27T02:11:03.059Z,82.2
2016-05-27T02:11:13.043Z,82.3
2016-05-27T02:11:23.028Z,82
2016-05-27T02:11:32.871Z,82.2
2016-05-27T02:11:43.028Z,82.1
2016-05-27T02:11:53.012Z,82.2
2016-05-27T02:12:02.985Z,82.3
2016-05-27T02:12:12.969Z,82.1
2016-05-27T02:12:22.969Z,82
2016-05-27T02:12:32.813Z,82.1
2016-05-27T02:12:42.938Z,82.2
2016-05-27T02:12:52.938Z,82.1
2016-05-27T02:13:02.785Z,82.1
2016-05-27T02:13:12.941Z,82.2
2016-05-27T02:13:22.753Z,82.2
2016-05-27T02:13:32.738Z,81.9
2016-05-27T02:13:42.878Z,81.8
2016-05-27T02:13:52.863Z,82.1